Time;durP1;ratioP1;P1;durP2;ratioP2;P2;SDS_P1;SDS_P2;PMS_P1;PMS_P2;Temp;Humidity;BMP_temperature;BMP_pressure;BME280_temperature;BME280_humidity;BME280_pressure;Samples;Min_cycle;Max_cycle;Signal;HPM_P1;HPM_P2
2023/05/29 00:02:58;;;;;;;9.20;5.30;;;;;;;9.06;59.78;100558.91;130107;1261;114784;-63
2023/05/29 00:06:02;;;;;;;7.10;4.50;;;;;;;9.02;59.99;100554.28;130096;1254;114717;-70
2023/05/29 00:09:04;;;;;;;8.80;4.50;;;;;;;8.97;59.95;100557.83;129537;1275;127735;-65
2023/05/29 00:12:07;;;;;;;9.10;5.20;;;;;;;8.93;60.42;100550.49;130208;1258;114694;-65
2023/05/29 00:15:10;;;;;;;8.40;5.50;;;;;;;8.89;60.42;100549.58;130239;1277;114798;-64
2023/05/29 00:18:12;;;;;;;12.80;4.80;;;;;;;8.86;60.43;100552.39;130235;1259;114796;-64
2023/05/29 00:21:15;;;;;;;9.00;4.70;;;;;;;8.82;60.43;100553.96;130162;1260;115111;-62
2023/05/29 00:24:17;;;;;;;8.80;4.80;;;;;;;8.79;60.67;100553.55;130108;1269;115237;-63
2023/05/29 00:27:19;;;;;;;6.00;4.60;;;;;;;8.75;60.77;100551.54;130105;1259;115206;-68
2023/05/29 00:30:21;;;;;;;7.30;4.90;;;;;;;8.72;61.03;100552.89;130198;1254;114741;-67
2023/05/29 00:33:23;;;;;;;8.60;4.70;;;;;;;8.69;61.06;100554.29;129635;1261;115224;-67
2023/05/29 00:36:29;;;;;;;10.00;4.80;;;;;;;8.66;61.60;100549.20;130138;1267;114814;-67
2023/05/29 00:39:31;;;;;;;8.10;4.40;;;;;;;8.63;61.63;100544.69;130267;1257;114787;-68
2023/05/29 00:42:33;;;;;;;8.80;4.70;;;;;;;8.60;61.44;100544.11;130150;1255;115202;-66
2023/05/29 00:45:36;;;;;;;8.80;4.80;;;;;;;8.57;61.79;100543.33;130141;1256;114724;-67
2023/05/29 00:48:38;;;;;;;8.90;5.00;;;;;;;8.53;61.79;100544.17;130097;1264;127905;-66
2023/05/29 00:51:40;;;;;;;8.10;4.70;;;;;;;8.49;61.96;100546.45;130180;1260;114781;-67
2023/05/29 00:54:44;;;;;;;7.60;4.90;;;;;;;8.44;61.94;100545.70;130231;1277;114779;-66
2023/05/29 00:57:47;;;;;;;8.60;4.40;;;;;;;8.41;62.39;100543.34;129579;1258;114778;-67
2023/05/29 01:00:52;;;;;;;10.70;4.50;;;;;;;8.37;62.75;100540.97;130171;1256;115183;-66
2023/05/29 01:03:57;;;;;;;11.00;4.40;;;;;;;8.32;62.37;100540.27;130157;1255;114742;-65
2023/05/29 01:07:02;;;;;;;10.70;5.20;;;;;;;8.29;62.55;100539.15;129946;1278;127856;-66
2023/05/29 01:10:08;;;;;;;9.50;4.40;;;;;;;8.25;62.38;100538.23;130133;1263;114896;-68
2023/05/29 01:13:24;;;;;;;12.00;5.50;;;;;;;8.20;62.82;100543.70;130190;1257;114715;-68
2023/05/29 01:16:47;;;;;;;9.60;5.20;;;;;;;8.17;63.03;100542.61;130157;1278;114724;-66
2023/05/29 01:20:13;;;;;;;9.20;5.30;;;;;;;8.13;63.37;100544.89;129782;1264;114705;-67
2023/05/29 01:23:15;;;;;;;10.70;5.40;;;;;;;8.09;63.30;100544.14;129895;1271;128044;-63
2023/05/29 01:26:42;;;;;;;7.90;4.70;;;;;;;8.05;63.19;100540.52;130071;1260;114706;-68
2023/05/29 01:29:47;;;;;;;7.60;4.80;;;;;;;8.00;63.39;100539.09;129905;1266;114755;-69
2023/05/29 01:32:50;;;;;;;9.50;4.60;;;;;;;7.95;63.38;100536.41;130159;1256;115094;-68
2023/05/29 01:35:52;;;;;;;8.30;4.60;;;;;;;7.91;63.43;100534.09;130284;1260;114729;-68
2023/05/29 01:38:56;;;;;;;10.10;4.60;;;;;;;7.86;63.81;100534.44;130148;1270;114760;-71
2023/05/29 01:42:00;;;;;;;8.80;5.00;;;;;;;7.81;63.96;100536.89;130124;1269;114763;-69
2023/05/29 01:45:05;;;;;;;8.00;4.60;;;;;;;7.77;63.93;100534.74;130166;1260;115398;-68
2023/05/29 01:48:08;;;;;;;11.10;5.50;;;;;;;7.73;63.93;100533.09;129820;1258;114882;-68
2023/05/29 01:51:11;;;;;;;9.10;5.40;;;;;;;7.69;64.17;100536.98;130227;1261;114729;-68
2023/05/29 01:54:14;;;;;;;7.10;4.50;;;;;;;7.65;64.27;100534.61;129660;1261;128181;-63
2023/05/29 01:57:17;;;;;;;9.50;4.70;;;;;;;7.61;64.57;100533.16;129749;1260;115401;-66
2023/05/29 02:00:20;;;;;;;10.80;4.80;;;;;;;7.56;64.61;100528.66;130019;1260;115314;-66
2023/05/29 02:03:23;;;;;;;9.40;5.00;;;;;;;7.53;64.23;100529.32;130343;1261;115335;-65
2023/05/29 02:06:25;;;;;;;9.30;5.10;;;;;;;7.49;64.43;100529.79;130112;1260;114746;-63
2023/05/29 02:09:27;;;;;;;9.10;5.10;;;;;;;7.44;64.69;100529.06;130081;1257;114827;-67
2023/05/29 02:12:30;;;;;;;8.30;4.80;;;;;;;7.41;64.67;100536.98;130134;1260;128920;-63
2023/05/29 02:15:32;;;;;;;7.50;4.50;;;;;;;7.36;64.81;100537.69;130038;1257;114705;-63
2023/05/29 02:18:34;;;;;;;8.10;4.40;;;;;;;7.32;64.88;100539.05;130153;1255;115504;-66
2023/05/29 02:21:38;;;;;;;6.30;3.80;;;;;;;7.28;64.92;100542.56;127996;1271;2691118;-65
2023/05/29 02:24:40;;;;;;;9.10;5.10;;;;;;;7.24;65.23;100544.98;130240;1259;115176;-65
2023/05/29 02:27:43;;;;;;;8.60;4.60;;;;;;;7.21;65.50;100542.07;130099;1254;114732;-63
2023/05/29 02:30:45;;;;;;;9.50;4.70;;;;;;;7.18;65.47;100543.96;130221;1259;114812;-64
2023/05/29 02:33:48;;;;;;;14.20;5.00;;;;;;;7.13;65.42;100537.52;130187;1269;115295;-64
2023/05/29 02:36:54;;;;;;;7.20;4.70;;;;;;;7.09;65.52;100539.98;129855;1256;128201;-65
2023/05/29 02:39:56;;;;;;;9.10;5.00;;;;;;;7.05;65.74;100539.55;129962;1269;116579;-65
2023/05/29 02:42:58;;;;;;;6.30;4.00;;;;;;;7.02;65.94;100536.12;130116;1255;114742;-65
2023/05/29 02:46:01;;;;;;;9.90;5.10;;;;;;;6.97;65.84;100537.64;130104;1260;114726;-64
2023/05/29 02:49:04;;;;;;;11.40;4.90;;;;;;;6.94;65.99;100535.95;130288;1264;114976;-65
2023/05/29 02:52:07;;;;;;;9.20;5.20;;;;;;;6.93;65.94;100536.52;130231;1277;114736;-62
2023/05/29 02:55:09;;;;;;;7.90;4.30;;;;;;;6.92;66.11;100535.86;130149;1260;114720;-64
2023/05/29 02:58:11;;;;;;;8.10;4.50;;;;;;;6.92;66.21;100535.16;130163;1259;114733;-63
2023/05/29 03:01:13;;;;;;;7.00;4.10;;;;;;;6.93;66.38;100534.08;129485;1263;114703;-64
2023/05/29 03:04:17;;;;;;;8.00;4.50;;;;;;;6.94;66.61;100532.26;129799;1254;115140;-63
2023/05/29 03:07:19;;;;;;;7.90;3.80;;;;;;;6.95;66.62;100537.70;130281;1254;114794;-66
2023/05/29 03:10:22;;;;;;;7.60;4.20;;;;;;;6.98;66.70;100534.97;130107;1254;114766;-64
2023/05/29 03:13:24;;;;;;;13.40;5.10;;;;;;;7.01;66.74;100537.55;129893;1268;115282;-66
2023/05/29 03:16:29;;;;;;;9.60;4.50;;;;;;;7.05;66.77;100542.76;130085;1260;128623;-64
2023/05/29 03:19:31;;;;;;;11.30;4.70;;;;;;;7.10;66.86;100545.45;129846;1277;114789;-66
2023/05/29 03:22:36;;;;;;;9.00;4.40;;;;;;;7.14;66.94;100547.98;129995;1278;115187;-64
2023/05/29 03:25:38;;;;;;;8.20;4.40;;;;;;;7.20;67.01;100547.63;130019;1260;114728;-63
2023/05/29 03:28:40;;;;;;;8.60;4.10;;;;;;;7.26;67.32;100549.19;130037;1260;114804;-64
2023/05/29 03:31:43;;;;;;;10.20;4.30;;;;;;;7.34;67.11;100550.73;130111;1260;114727;-65
2023/05/29 03:34:45;;;;;;;13.30;4.60;;;;;;;7.41;67.37;100545.33;130099;1260;128597;-64
2023/05/29 03:37:47;;;;;;;7.80;4.70;;;;;;;7.50;67.47;100549.67;130087;1278;114762;-64
2023/05/29 03:40:50;;;;;;;9.20;4.40;;;;;;;7.59;67.43;100549.36;130107;1260;115187;-64
2023/05/29 03:43:52;;;;;;;12.70;4.80;;;;;;;7.69;67.40;100551.55;129627;1260;114866;-64
2023/05/29 03:46:54;;;;;;;9.30;4.60;;;;;;;7.79;67.65;100556.53;130154;1258;114723;-63
2023/05/29 03:49:57;;;;;;;10.80;4.70;;;;;;;7.89;67.55;100557.43;130130;1274;114730;-64
2023/05/29 03:52:59;;;;;;;8.70;3.60;;;;;;;8.01;67.75;100561.11;129471;1267;116352;-63
2023/05/29 03:56:01;;;;;;;11.00;4.80;;;;;;;8.14;67.77;100569.93;129577;1262;114785;-65
2023/05/29 03:59:04;;;;;;;8.80;4.40;;;;;;;8.26;67.83;100565.77;129784;1261;114797;-65
2023/05/29 04:02:08;;;;;;;9.90;4.60;;;;;;;8.39;67.68;100569.03;130023;1260;114901;-63
2023/05/29 04:05:12;;;;;;;11.10;4.80;;;;;;;8.52;67.74;100566.80;129536;1277;114722;-63
2023/05/29 04:08:15;;;;;;;10.20;5.20;;;;;;;8.65;67.83;100568.11;129618;1261;114767;-62
2023/05/29 04:11:20;;;;;;;11.20;5.30;;;;;;;8.80;67.71;100567.21;129783;1259;114797;-65
2023/05/29 04:14:24;;;;;;;8.90;4.70;;;;;;;8.94;67.86;100564.88;129623;1278;128769;-64
2023/05/29 04:17:27;;;;;;;9.40;4.80;;;;;;;9.10;67.87;100563.56;130096;1260;114738;-64
2023/05/29 04:20:31;;;;;;;12.10;5.60;;;;;;;9.26;68.03;100565.63;130004;1256;114909;-64
2023/05/29 04:23:33;;;;;;;13.50;5.50;;;;;;;9.43;67.33;100568.16;130259;1256;115223;-63
2023/05/29 04:26:36;;;;;;;8.40;4.90;;;;;;;9.58;67.25;100567.69;130138;1262;114863;-66
2023/05/29 04:29:42;;;;;;;6.00;4.30;;;;;;;9.77;67.19;100575.85;130097;1277;114815;-64
2023/05/29 04:32:44;;;;;;;10.20;4.20;;;;;;;9.96;67.17;100576.13;130115;1278;129721;-65
2023/05/29 04:35:48;;;;;;;8.80;4.70;;;;;;;10.25;67.48;100578.28;130156;1255;115404;-64
2023/05/29 04:38:51;;;;;;;8.70;4.20;;;;;;;11.10;68.28;100579.45;130176;1255;114713;-62
2023/05/29 04:41:58;;;;;;;12.60;5.10;;;;;;;12.37;68.02;100577.11;130351;1260;114724;-66
2023/05/29 04:45:00;;;;;;;15.30;4.50;;;;;;;13.82;67.02;100575.42;129996;1261;114697;-63
2023/05/29 04:48:04;;;;;;;11.60;4.50;;;;;;;15.21;65.74;100576.70;130048;1260;114743;-64
2023/05/29 04:51:06;;;;;;;7.60;4.60;;;;;;;16.53;63.90;100573.50;130097;1260;114831;-65
2023/05/29 04:54:10;;;;;;;7.60;4.40;;;;;;;17.76;62.28;100565.71;130179;1259;115142;-66
2023/05/29 04:57:13;;;;;;;8.10;4.20;;;;;;;18.91;60.34;100560.64;130338;1258;114698;-63
2023/05/29 05:00:17;;;;;;;7.60;4.30;;;;;;;19.97;58.66;100556.67;129942;1259;114704;-62
2023/05/29 05:03:20;;;;;;;6.10;3.80;;;;;;;20.99;57.00;100558.20;129596;1277;129129;-64
2023/05/29 05:06:25;;;;;;;6.50;4.20;;;;;;;21.91;55.28;100557.70;129978;1254;114742;-66
2023/05/29 05:09:27;;;;;;;9.20;4.00;;;;;;;22.74;53.83;100560.42;129997;1258;114807;-61
2023/05/29 05:12:30;;;;;;;6.90;3.80;;;;;;;23.53;52.56;100562.20;129748;1277;114801;-62
2023/05/29 05:15:34;;;;;;;5.80;3.40;;;;;;;24.28;50.76;100560.33;129954;1258;115085;-62
2023/05/29 05:18:36;;;;;;;10.60;4.40;;;;;;;24.86;48.99;100562.73;129845;1274;115368;-65
2023/05/29 05:21:39;;;;;;;4.70;3.80;;;;;;;25.36;47.91;100563.75;129933;1277;114839;-63
2023/05/29 05:24:41;;;;;;;9.00;4.00;;;;;;;25.84;46.45;100561.29;130279;1256;115270;-62
2023/05/29 05:27:43;;;;;;;7.60;3.50;;;;;;;26.32;45.01;100559.90;130147;1260;114723;-62
2023/05/29 05:30:45;;;;;;;9.00;3.70;;;;;;;26.76;44.08;100561.95;130058;1274;114649;-64
2023/05/29 05:33:47;;;;;;;9.50;4.40;;;;;;;27.19;43.05;100563.23;130109;1256;115170;-66
2023/05/29 05:36:49;;;;;;;7.60;4.30;;;;;;;27.37;41.69;100561.77;129843;1261;114696;-63
2023/05/29 05:39:53;;;;;;;8.30;4.00;;;;;;;27.44;40.80;100561.61;130012;1260;114723;-63
2023/05/29 05:42:55;;;;;;;8.40;4.00;;;;;;;27.66;39.96;100561.50;129992;1278;115132;-67
2023/05/29 05:45:57;;;;;;;6.40;4.10;;;;;;;27.94;39.43;100562.51;129963;1273;114825;-65
2023/05/29 05:49:00;;;;;;;8.00;3.90;;;;;;;28.17;38.06;100561.52;130166;1278;115330;-66
2023/05/29 05:52:02;;;;;;;8.70;4.10;;;;;;;28.18;37.61;100559.73;129777;1263;116365;-64
2023/05/29 05:55:06;;;;;;;6.60;4.00;;;;;;;28.39;37.05;100560.46;130113;1260;114735;-65
2023/05/29 05:58:08;;;;;;;9.70;4.10;;;;;;;28.67;36.33;100558.81;130222;1254;114812;-65
2023/05/29 06:01:10;;;;;;;6.10;3.80;;;;;;;28.84;35.89;100560.02;130193;1277;114704;-67
2023/05/29 06:04:13;;;;;;;7.30;3.60;;;;;;;28.70;34.63;100564.48;130137;1253;114808;-65
2023/05/29 06:07:14;;;;;;;9.50;3.70;;;;;;;28.69;34.61;100563.12;129951;1277;114901;-64
2023/05/29 06:10:16;;;;;;;8.90;3.40;;;;;;;28.74;34.35;100564.39;130214;1254;115266;-64
2023/05/29 06:13:18;;;;;;;6.90;3.50;;;;;;;28.76;33.88;100565.59;130330;1253;114701;-65
2023/05/29 06:16:21;;;;;;;9.30;3.70;;;;;;;28.82;33.58;100563.04;130208;1277;114696;-65
2023/05/29 06:19:22;;;;;;;7.00;3.60;;;;;;;28.83;33.31;100563.61;130119;1277;114729;-66
2023/05/29 06:22:25;;;;;;;4.70;3.50;;;;;;;28.75;32.95;100565.98;130303;1254;114813;-68
2023/05/29 06:25:32;;;;;;;8.30;3.50;;;;;;;28.74;33.14;100565.25;130000;1261;115277;-66
2023/05/29 06:28:34;;;;;;;5.00;3.30;;;;;;;28.82;32.87;100567.04;130230;1258;114763;-70
2023/05/29 06:31:37;;;;;;;4.10;3.10;;;;;;;28.87;32.69;100568.29;130194;1255;115316;-70
2023/05/29 06:34:39;;;;;;;6.10;2.70;;;;;;;28.86;32.49;100566.45;130189;1254;114712;-71
2023/05/29 06:37:41;;;;;;;4.30;3.00;;;;;;;28.86;32.21;100570.34;130164;1258;114757;-70
2023/05/29 06:40:43;;;;;;;3.10;2.60;;;;;;;28.81;32.03;100567.95;130059;1258;114783;-70
2023/05/29 06:43:45;;;;;;;10.30;3.40;;;;;;;28.90;32.22;100572.94;130226;1254;114716;-70
2023/05/29 06:46:47;;;;;;;7.60;2.80;;;;;;;29.11;32.15;100574.67;129903;1262;114877;-69
2023/05/29 06:49:49;;;;;;;6.50;2.70;;;;;;;29.32;31.96;100575.85;130413;1254;114658;-67
2023/05/29 06:52:51;;;;;;;4.60;2.80;;;;;;;29.52;31.50;100577.90;130211;1277;114796;-67
2023/05/29 06:55:53;;;;;;;6.40;2.80;;;;;;;29.71;31.01;100583.80;130771;1254;114720;-67
2023/05/29 06:58:55;;;;;;;5.20;3.00;;;;;;;29.78;30.73;100587.33;130761;1254;114777;-67
2023/05/29 07:01:57;;;;;;;5.30;3.40;;;;;;;29.85;30.82;100586.91;130202;1258;114797;-67
2023/05/29 07:04:59;;;;;;;11.80;3.20;;;;;;;30.00;30.52;100587.17;131915;1254;119827;-68
2023/05/29 07:08:01;;;;;;;8.00;2.90;;;;;;;30.10;30.20;100587.31;131550;1259;114801;-68
2023/05/29 07:11:03;;;;;;;4.30;2.80;;;;;;;30.21;30.03;100589.07;130178;1277;114670;-68
2023/05/29 07:14:05;;;;;;;5.00;2.40;;;;;;;30.34;29.96;100592.71;129942;1264;114891;-68
2023/05/29 07:17:07;;;;;;;5.40;2.50;;;;;;;30.52;30.03;100590.20;130241;1255;114799;-69
2023/05/29 07:20:10;;;;;;;5.80;2.70;;;;;;;30.74;29.96;100587.59;130323;1270;114742;-68
2023/05/29 07:23:12;;;;;;;7.90;2.60;;;;;;;30.98;29.15;100586.45;130203;1258;116426;-69
2023/05/29 07:26:14;;;;;;;5.90;3.10;;;;;;;31.05;28.57;100584.55;130217;1258;115138;-69
2023/05/29 07:29:17;;;;;;;7.90;3.20;;;;;;;31.22;28.79;100585.84;130257;1258;115168;-67
2023/05/29 07:32:21;;;;;;;6.00;2.70;;;;;;;31.52;28.50;100580.67;129995;1260;114796;-68
2023/05/29 07:35:23;;;;;;;5.40;3.00;;;;;;;31.73;28.23;100583.05;129936;1254;114784;-68
2023/05/29 07:38:25;;;;;;;4.20;2.80;;;;;;;32.01;27.48;100584.44;130120;1258;114789;-67
2023/05/29 07:41:27;;;;;;;4.00;2.60;;;;;;;32.12;26.84;100584.14;130167;1258;114746;-67
2023/05/29 07:44:31;;;;;;;4.70;2.20;;;;;;;32.32;26.77;100588.45;130294;1270;114723;-68
2023/05/29 07:47:33;;;;;;;9.40;2.90;;;;;;;32.42;26.58;100587.34;130334;1260;114815;-67
2023/05/29 07:50:36;;;;;;;3.00;2.30;;;;;;;32.52;26.00;100589.24;130139;1278;114724;-67
2023/05/29 07:53:39;;;;;;;5.50;2.00;;;;;;;32.47;25.07;100590.52;130108;1270;114746;-68
2023/05/29 07:56:43;;;;;;;7.80;2.80;;;;;;;32.48;25.03;100586.27;130199;1260;114706;-66
2023/05/29 07:59:49;;;;;;;6.00;2.10;;;;;;;32.57;24.82;100590.19;129997;1259;115480;-68
2023/05/29 08:02:51;;;;;;;6.10;2.20;;;;;;;32.46;24.17;100590.45;130007;1270;114825;-68
2023/05/29 08:05:54;;;;;;;3.10;1.90;;;;;;;32.13;23.29;100593.66;130140;1255;114774;-68
2023/05/29 08:08:56;;;;;;;3.10;1.80;;;;;;;31.45;22.48;100594.44;130183;1278;114792;-67
2023/05/29 08:11:59;;;;;;;3.20;2.20;;;;;;;31.01;22.89;100596.86;130207;1261;114722;-67
2023/05/29 08:15:02;;;;;;;2.70;1.80;;;;;;;30.95;23.15;100594.66;129982;1262;115066;-67
2023/05/29 08:18:05;;;;;;;2.90;2.10;;;;;;;31.04;22.87;100601.14;129986;1260;114873;-67
2023/05/29 08:21:09;;;;;;;2.20;2.00;;;;;;;30.96;22.79;100602.19;130047;1258;114713;-66
2023/05/29 08:24:11;;;;;;;2.50;1.80;;;;;;;30.86;22.07;100607.11;130366;1261;115194;-68
2023/05/29 08:27:14;;;;;;;5.30;1.70;;;;;;;30.49;22.31;100605.04;130395;1255;115207;-66
2023/05/29 08:30:16;;;;;;;4.80;2.20;;;;;;;30.33;22.58;100603.56;130358;1258;114751;-68
2023/05/29 08:33:18;;;;;;;3.90;1.80;;;;;;;30.29;22.55;100599.05;130307;1270;115147;-65
2023/05/29 08:36:21;;;;;;;2.50;1.90;;;;;;;30.35;22.76;100598.68;130130;1258;115112;-68
2023/05/29 08:39:23;;;;;;;2.80;2.30;;;;;;;30.33;22.12;100598.83;130330;1271;114767;-65
2023/05/29 08:42:36;;;;;;;5.90;2.00;;;;;;;30.07;21.92;100605.27;130231;1260;114790;-66
2023/05/29 08:45:43;;;;;;;6.00;2.30;;;;;;;29.84;22.32;100602.54;130238;1260;115065;-65
2023/05/29 08:48:49;;;;;;;6.70;2.60;;;;;;;29.80;22.51;100605.17;130158;1258;114803;-64
2023/05/29 08:52:03;;;;;;;3.40;2.20;;;;;;;29.80;23.04;100604.23;130018;1261;114757;-64
2023/05/29 08:55:05;;;;;;;7.70;2.10;;;;;;;29.91;23.13;100602.45;130260;1261;115396;-65
2023/05/29 08:58:09;;;;;;;6.30;2.40;;;;;;;29.80;22.93;100605.13;130097;1258;114821;-66
2023/05/29 09:01:12;;;;;;;6.00;2.00;;;;;;;29.54;22.85;100603.41;130024;1263;114818;-66
2023/05/29 09:04:14;;;;;;;4.60;2.20;;;;;;;29.41;23.47;100600.99;130094;1258;115139;-65
2023/05/29 09:07:18;;;;;;;5.10;2.70;;;;;;;29.36;23.72;100606.39;130054;1258;114813;-66
2023/05/29 09:10:21;;;;;;;6.70;2.80;;;;;;;29.16;23.80;100605.02;130156;1260;114761;-65
2023/05/29 09:13:23;;;;;;;5.00;2.30;;;;;;;29.16;24.03;100604.16;130114;1270;114776;-65
2023/05/29 09:16:25;;;;;;;6.20;2.30;;;;;;;29.12;24.08;100602.37;130363;1258;114730;-67
2023/05/29 09:19:28;;;;;;;3.20;2.50;;;;;;;29.09;24.41;100599.40;130342;1254;115078;-64
2023/05/29 09:22:29;;;;;;;4.80;2.60;;;;;;;29.07;24.28;100599.08;130288;1258;114707;-66
2023/05/29 09:25:33;;;;;;;4.20;2.60;;;;;;;28.93;24.32;100600.61;130315;1270;114673;-66
2023/05/29 09:28:35;;;;;;;7.80;3.50;;;;;;;28.61;24.43;100601.25;130074;1258;114736;-65
2023/05/29 09:31:46;;;;;;;6.50;2.80;;;;;;;28.31;24.78;100603.73;130243;1260;115154;-65
2023/05/29 09:34:48;;;;;;;5.50;3.10;;;;;;;28.15;25.10;100608.03;130280;1256;119217;-66
2023/05/29 09:37:50;;;;;;;9.60;2.50;;;;;;;27.96;24.98;100599.98;130035;1276;114770;-67
2023/05/29 09:40:55;;;;;;;7.90;2.90;;;;;;;27.80;25.25;100600.16;130323;1274;115181;-66
2023/05/29 09:44:00;;;;;;;5.40;2.80;;;;;;;27.49;25.28;100601.02;130660;1255;114815;-65
2023/05/29 09:47:03;;;;;;;4.20;2.70;;;;;;;27.22;25.50;100603.27;130197;1261;114879;-65
2023/05/29 09:50:07;;;;;;;3.40;2.50;;;;;;;27.04;25.76;100606.61;130255;1258;114674;-67
2023/05/29 09:53:20;;;;;;;5.10;2.50;;;;;;;26.93;25.87;100601.93;130303;1256;120172;-66
2023/05/29 09:56:24;;;;;;;5.30;2.70;;;;;;;26.84;26.51;100604.60;130119;1260;115166;-63
2023/05/29 09:59:27;;;;;;;4.00;2.70;;;;;;;26.53;26.16;100600.61;129832;1264;115036;-67
2023/05/29 10:02:28;;;;;;;5.60;2.90;;;;;;;26.20;26.81;100603.64;130133;1274;115126;-66
2023/05/29 10:05:31;;;;;;;4.50;2.50;;;;;;;25.98;26.78;100598.39;130196;1256;114786;-66
2023/05/29 10:08:36;;;;;;;6.40;3.00;;;;;;;25.86;27.09;100595.11;130063;1261;114854;-66
2023/05/29 10:11:38;;;;;;;7.00;3.50;;;;;;;25.73;27.05;100596.95;130100;1275;120200;-66
2023/05/29 10:14:41;;;;;;;4.50;2.50;;;;;;;25.62;27.63;100592.78;130029;1260;114818;-64
2023/05/29 10:17:59;;;;;;;4.90;2.70;;;;;;;25.54;27.23;100592.45;130363;1261;114797;-66
2023/05/29 10:21:01;;;;;;;4.40;2.30;;;;;;;25.36;27.13;100587.91;129713;1258;114698;-66
2023/05/29 10:24:07;;;;;;;2.60;2.00;;;;;;;25.09;26.82;100587.67;130236;1260;114774;-66
2023/05/29 10:27:09;;;;;;;5.80;2.90;;;;;;;24.87;27.39;100580.88;130021;1258;128900;-65
2023/05/29 10:30:21;;;;;;;5.10;2.60;;;;;;;24.93;28.11;100582.31;130205;1258;114729;-65
2023/05/29 10:34:02;;;;;;;8.40;2.70;;;;;;;24.96;28.10;100582.10;129665;1272;114743;-66
2023/05/29 10:37:32;;;;;;;7.10;2.80;;;;;;;24.78;28.02;100578.95;129589;1274;114901;-64
2023/05/29 10:40:34;;;;;;;4.20;2.60;;;;;;;24.65;28.40;100584.94;129674;1274;114730;-64
2023/05/29 10:43:37;;;;;;;5.40;2.80;;;;;;;24.65;28.38;100575.65;129701;1274;114714;-64
2023/05/29 10:46:44;;;;;;;5.20;2.60;;;;;;;24.74;28.66;100575.63;129638;1277;114719;-63
2023/05/29 10:49:51;;;;;;;7.70;3.00;;;;;;;24.84;28.71;100572.55;129771;1261;114997;-65
2023/05/29 10:52:53;;;;;;;4.90;2.20;;;;;;;24.88;28.22;100571.09;130265;1255;114775;-66
2023/05/29 10:55:55;;;;;;;3.80;2.30;;;;;;;24.84;27.91;100572.27;130120;1258;114754;-65
2023/05/29 10:59:00;;;;;;;5.40;2.70;;;;;;;24.68;27.49;100573.55;130170;1277;114729;-65
2023/05/29 11:02:05;;;;;;;7.80;2.50;;;;;;;24.52;28.05;100572.94;129676;1277;127527;-66
2023/05/29 11:05:25;;;;;;;;;;;;;;;24.49;28.44;100569.28;130013;1260;114722;-67
2023/05/29 11:08:47;;;;;;;5.80;2.20;;;;;;;24.47;28.69;100565.64;130169;1258;114719;-67
2023/05/29 11:12:09;;;;;;;8.80;2.80;;;;;;;24.52;28.66;100567.81;130091;1255;114883;-67
2023/05/29 11:15:13;;;;;;;11.30;3.10;;;;;;;24.58;28.53;100563.38;130194;1255;115172;-66
2023/05/29 11:18:20;;;;;;;7.50;2.60;;;;;;;24.61;28.70;100558.92;129992;1261;128637;-66
2023/05/29 11:21:47;;;;;;;3.60;2.20;;;;;;;24.62;28.59;100560.80;130085;1277;116434;-66
2023/05/29 11:24:51;;;;;;;5.00;2.70;;;;;;;24.65;28.82;100563.95;129640;1258;114733;-66
2023/05/29 11:27:53;;;;;;;7.40;2.50;;;;;;;24.68;28.72;100559.11;130161;1256;116251;-66
2023/05/29 11:30:56;;;;;;;5.60;2.40;;;;;;;24.69;28.45;100559.84;130148;1259;115396;-66
2023/05/29 11:34:00;;;;;;;4.40;2.70;;;;;;;24.71;28.64;100556.20;130082;1260;114989;-66
2023/05/29 11:37:03;;;;;;;5.40;2.50;;;;;;;24.76;28.76;100560.65;130233;1259;114788;-64
2023/05/29 11:40:08;;;;;;;3.00;2.40;;;;;;;24.80;28.72;100555.15;130224;1277;114787;-66
2023/05/29 11:43:12;;;;;;;;;;;;;;;24.82;29.01;100550.47;129989;1261;114701;-65
2023/05/29 11:46:20;;;;;;;7.30;2.60;;;;;;;24.86;28.92;100556.67;130029;1261;114859;-65
2023/05/29 11:49:33;;;;;;;6.70;3.20;;;;;;;24.78;28.53;100565.04;130007;1262;127580;-65
2023/05/29 11:52:46;;;;;;;7.70;2.40;;;;;;;24.57;28.61;100565.13;130122;1261;114758;-65
2023/05/29 11:55:48;;;;;;;4.20;3.00;;;;;;;24.52;28.79;100558.17;130097;1256;114711;-64
2023/05/29 11:58:51;;;;;;;6.70;2.30;;;;;;;24.55;28.99;100550.76;129594;1255;115222;-66
2023/05/29 12:01:53;;;;;;;6.10;2.50;;;;;;;24.65;29.13;100547.57;129677;1258;115151;-66
2023/05/29 12:05:06;;;;;;;6.70;2.60;;;;;;;24.70;28.84;100545.98;130126;1277;114820;-65
2023/05/29 12:08:09;;;;;;;7.90;2.70;;;;;;;24.67;28.85;100537.58;129986;1277;129094;-66
2023/05/29 12:11:11;;;;;;;5.90;3.20;;;;;;;24.75;29.09;100537.79;130208;1256;114729;-64
2023/05/29 12:14:13;;;;;;;4.90;2.90;;;;;;;24.84;29.22;100531.98;129653;1256;114771;-65
2023/05/29 12:17:15;;;;;;;5.20;2.90;;;;;;;24.96;28.98;100543.89;129645;1258;114698;-65
2023/05/29 12:20:18;;;;;;;9.60;3.20;;;;;;;25.00;29.07;100542.42;130228;1258;114742;-66
2023/05/29 12:23:20;;;;;;;5.90;2.90;;;;;;;24.94;28.66;100542.17;130180;1274;114713;-66
2023/05/29 12:26:27;;;;;;;6.20;2.40;;;;;;;24.81;28.66;100537.66;130219;1256;114713;-66
2023/05/29 12:29:31;;;;;;;7.60;2.80;;;;;;;24.68;28.39;100536.10;130137;1277;128989;-67
2023/05/29 12:32:40;;;;;;;10.90;2.50;;;;;;;24.52;28.20;100530.85;130077;1262;114713;-65
2023/05/29 12:35:47;;;;;;;4.10;2.30;;;;;;;24.47;28.72;100530.69;130120;1259;114691;-65
2023/05/29 12:38:51;;;;;;;3.10;2.40;;;;;;;24.48;29.01;100525.81;130117;1262;114949;-65
2023/05/29 12:41:54;;;;;;;5.60;2.60;;;;;;;24.49;28.90;100524.71;130049;1278;114681;-66
2023/05/29 12:44:56;;;;;;;5.50;2.50;;;;;;;24.47;28.72;100519.84;130081;1259;114736;-66
2023/05/29 12:48:03;;;;;;;4.30;2.10;;;;;;;24.46;28.87;100518.70;130210;1261;115439;-66
2023/05/29 12:51:07;;;;;;;5.80;2.10;;;;;;;24.44;29.25;100516.11;130137;1258;114911;-66
2023/05/29 12:54:14;;;;;;;2.60;2.20;;;;;;;24.45;29.28;100514.73;130306;1261;114706;-67
2023/05/29 12:57:16;;;;;;;5.20;3.00;;;;;;;24.42;29.18;100517.20;130113;1261;114748;-67
2023/05/29 13:00:19;;;;;;;9.70;3.20;;;;;;;24.38;29.08;100520.20;130083;1258;115084;-68
2023/05/29 13:03:25;;;;;;;5.20;2.60;;;;;;;24.31;28.80;100510.91;130091;1270;114723;-66
2023/05/29 13:06:28;;;;;;;7.00;2.40;;;;;;;24.31;29.11;100510.15;129911;1277;114893;-66
2023/05/29 13:09:31;;;;;;;3.80;2.40;;;;;;;24.33;29.16;100504.83;130151;1261;116425;-65
2023/05/29 13:12:34;;;;;;;5.50;2.70;;;;;;;24.39;29.48;100506.41;130124;1258;114713;-68
2023/05/29 13:15:36;;;;;;;4.90;2.30;;;;;;;24.45;29.18;100505.48;130163;1265;114640;-64
2023/05/29 13:18:38;;;;;;;4.80;2.10;;;;;;;24.47;29.21;100501.99;129638;1269;114790;-65
2023/05/29 13:21:47;;;;;;;7.20;2.50;;;;;;;24.47;29.31;100501.94;130199;1277;115264;-65
2023/05/29 13:24:49;;;;;;;3.40;2.30;;;;;;;24.44;29.13;100503.70;130263;1260;114796;-64
2023/05/29 13:27:52;;;;;;;5.60;2.60;;;;;;;24.42;29.22;100494.41;129577;1269;114973;-65
2023/05/29 13:30:54;;;;;;;5.00;2.30;;;;;;;24.39;29.27;100491.04;129864;1269;115195;-65
2023/05/29 13:33:56;;;;;;;5.50;2.40;;;;;;;24.36;29.09;100492.86;129690;1260;115341;-64
2023/05/29 13:37:01;;;;;;;4.50;2.70;;;;;;;24.27;28.96;100492.64;129666;1269;128991;-69
2023/05/29 13:40:04;;;;;;;4.40;3.00;;;;;;;24.21;29.12;100491.68;130019;1259;114887;-67
2023/05/29 13:43:07;;;;;;;4.40;2.20;;;;;;;24.16;29.09;100487.48;130038;1263;114788;-66
2023/05/29 13:46:09;;;;;;;3.20;2.60;;;;;;;24.13;29.17;100484.98;130228;1261;115173;-69
2023/05/29 13:49:11;;;;;;;4.50;2.50;;;;;;;24.17;29.35;100483.13;130316;1274;115427;-74
2023/05/29 13:52:13;;;;;;;2.70;2.40;;;;;;;24.20;28.98;100481.44;130181;1260;114724;-70
2023/05/29 13:55:15;;;;;;;8.10;2.90;;;;;;;24.17;28.90;100476.56;130327;1261;114716;-71
2023/05/29 13:58:17;;;;;;;6.10;3.90;;;;;;;24.18;29.07;100472.31;131889;1258;115172;-71
2023/05/29 14:01:20;;;;;;;6.10;3.30;;;;;;;24.20;29.08;100467.16;131720;1258;115190;-69